sensor_id;sensor_type;location;lat;lon;timestamp;P1;durP1;ratioP1;P2;durP2;ratioP2
52724;SDS011;38621;52.830;6.914;2022-12-18T00:00:40;45.85;;;18.42;;
52724;SDS011;38621;52.830;6.914;2022-12-18T00:03:06;50.17;;;23.17;;
52724;SDS011;38621;52.830;6.914;2022-12-18T00:05:32;45.20;;;20.55;;
52724;SDS011;38621;52.830;6.914;2022-12-18T00:07:57;45.70;;;20.52;;
52724;SDS011;38621;52.830;6.914;2022-12-18T00:10:23;51.90;;;22.85;;
52724;SDS011;38621;52.830;6.914;2022-12-18T00:12:49;41.30;;;19.65;;
52724;SDS011;38621;52.830;6.914;2022-12-18T00:15:14;44.30;;;18.42;;
52724;SDS011;38621;52.830;6.914;2022-12-18T00:17:40;46.78;;;20.45;;
52724;SDS011;38621;52.830;6.914;2022-12-18T00:20:06;41.78;;;18.48;;
52724;SDS011;38621;52.830;6.914;2022-12-18T00:22:32;45.75;;;19.85;;
52724;SDS011;38621;52.830;6.914;2022-12-18T00:24:58;43.95;;;19.15;;
52724;SDS011;38621;52.830;6.914;2022-12-18T00:27:23;42.60;;;19.02;;
52724;SDS011;38621;52.830;6.914;2022-12-18T00:29:49;44.35;;;19.95;;
52724;SDS011;38621;52.830;6.914;2022-12-18T00:32:15;46.50;;;19.65;;
52724;SDS011;38621;52.830;6.914;2022-12-18T00:34:41;44.92;;;19.67;;
52724;SDS011;38621;52.830;6.914;2022-12-18T00:37:06;45.28;;;21.17;;
52724;SDS011;38621;52.830;6.914;2022-12-18T00:39:32;48.28;;;21.70;;
52724;SDS011;38621;52.830;6.914;2022-12-18T00:41:58;46.63;;;18.73;;
52724;SDS011;38621;52.830;6.914;2022-12-18T00:44:42;47.97;;;21.15;;
52724;SDS011;38621;52.830;6.914;2022-12-18T00:47:07;47.05;;;21.38;;
52724;SDS011;38621;52.830;6.914;2022-12-18T00:49:33;51.38;;;20.10;;
52724;SDS011;38621;52.830;6.914;2022-12-18T00:51:59;45.17;;;20.98;;
52724;SDS011;38621;52.830;6.914;2022-12-18T00:54:24;44.85;;;21.00;;
52724;SDS011;38621;52.830;6.914;2022-12-18T00:56:50;48.92;;;20.38;;
52724;SDS011;38621;52.830;6.914;2022-12-18T00:59:17;38.78;;;19.23;;
52724;SDS011;38621;52.830;6.914;2022-12-18T01:01:43;45.83;;;18.98;;
52724;SDS011;38621;52.830;6.914;2022-12-18T01:04:08;51.55;;;20.48;;
52724;SDS011;38621;52.830;6.914;2022-12-18T01:06:34;45.28;;;19.80;;
52724;SDS011;38621;52.830;6.914;2022-12-18T01:09:00;45.75;;;19.50;;
52724;SDS011;38621;52.830;6.914;2022-12-18T01:11:25;41.47;;;18.55;;
52724;SDS011;38621;52.830;6.914;2022-12-18T01:13:52;39.83;;;18.25;;
52724;SDS011;38621;52.830;6.914;2022-12-18T01:16:18;34.58;;;17.48;;
52724;SDS011;38621;52.830;6.914;2022-12-18T01:18:44;36.38;;;17.33;;
52724;SDS011;38621;52.830;6.914;2022-12-18T01:21:11;37.97;;;19.00;;
52724;SDS011;38621;52.830;6.914;2022-12-18T01:23:39;38.28;;;17.95;;
52724;SDS011;38621;52.830;6.914;2022-12-18T01:26:09;39.03;;;18.02;;
52724;SDS011;38621;52.830;6.914;2022-12-18T01:28:36;41.00;;;17.95;;
52724;SDS011;38621;52.830;6.914;2022-12-18T01:31:36;36.25;;;18.23;;
52724;SDS011;38621;52.830;6.914;2022-12-18T01:33:56;39.88;;;18.00;;
52724;SDS011;38621;52.830;6.914;2022-12-18T01:36:23;41.60;;;18.75;;
52724;SDS011;38621;52.830;6.914;2022-12-18T01:38:51;43.90;;;19.05;;
52724;SDS011;38621;52.830;6.914;2022-12-18T01:41:19;45.00;;;18.77;;
52724;SDS011;38621;52.830;6.914;2022-12-18T01:43:49;41.05;;;19.92;;
52724;SDS011;38621;52.830;6.914;2022-12-18T01:46:15;46.70;;;19.67;;
52724;SDS011;38621;52.830;6.914;2022-12-18T01:48:42;49.55;;;21.42;;
52724;SDS011;38621;52.830;6.914;2022-12-18T01:51:10;45.55;;;19.05;;
52724;SDS011;38621;52.830;6.914;2022-12-18T01:53:37;50.95;;;19.95;;
52724;SDS011;38621;52.830;6.914;2022-12-18T01:56:05;47.17;;;19.77;;
52724;SDS011;38621;52.830;6.914;2022-12-18T02:01:06;45.83;;;19.83;;
52724;SDS011;38621;52.830;6.914;2022-12-18T02:03:32;44.45;;;19.00;;
52724;SDS011;38621;52.830;6.914;2022-12-18T02:06:00;43.55;;;18.38;;
52724;SDS011;38621;52.830;6.914;2022-12-18T02:11:17;44.83;;;19.48;;
52724;SDS011;38621;52.830;6.914;2022-12-18T02:14:06;44.15;;;19.77;;
52724;SDS011;38621;52.830;6.914;2022-12-18T02:16:51;39.03;;;18.05;;
52724;SDS011;38621;52.830;6.914;2022-12-18T02:27:57;29.83;;;15.35;;
52724;SDS011;38621;52.830;6.914;2022-12-18T02:30:27;27.85;;;15.23;;
52724;SDS011;38621;52.830;6.914;2022-12-18T02:32:56;32.20;;;17.13;;
52724;SDS011;38621;52.830;6.914;2022-12-18T02:35:24;32.25;;;14.40;;
52724;SDS011;38621;52.830;6.914;2022-12-18T02:37:54;31.40;;;15.02;;
52724;SDS011;38621;52.830;6.914;2022-12-18T02:40:20;33.58;;;14.75;;
52724;SDS011;38621;52.830;6.914;2022-12-18T02:42:49;29.08;;;15.05;;
52724;SDS011;38621;52.830;6.914;2022-12-18T02:45:14;27.10;;;15.05;;
52724;SDS011;38621;52.830;6.914;2022-12-18T02:47:41;29.30;;;14.18;;
52724;SDS011;38621;52.830;6.914;2022-12-18T02:55:48;25.98;;;14.27;;
52724;SDS011;38621;52.830;6.914;2022-12-18T03:01:19;29.95;;;14.20;;
52724;SDS011;38621;52.830;6.914;2022-12-18T03:09:15;27.23;;;12.48;;
52724;SDS011;38621;52.830;6.914;2022-12-18T03:11:46;25.33;;;12.60;;
52724;SDS011;38621;52.830;6.914;2022-12-18T03:14:36;26.38;;;12.45;;
52724;SDS011;38621;52.830;6.914;2022-12-18T03:17:05;30.80;;;14.25;;
52724;SDS011;38621;52.830;6.914;2022-12-18T03:19:35;25.77;;;12.95;;
52724;SDS011;38621;52.830;6.914;2022-12-18T03:22:01;23.75;;;12.75;;
52724;SDS011;38621;52.830;6.914;2022-12-18T03:24:29;31.95;;;13.15;;
52724;SDS011;38621;52.830;6.914;2022-12-18T03:26:59;23.10;;;12.38;;
52724;SDS011;38621;52.830;6.914;2022-12-18T03:29:30;26.30;;;13.02;;
52724;SDS011;38621;52.830;6.914;2022-12-18T03:32:00;24.40;;;12.70;;
52724;SDS011;38621;52.830;6.914;2022-12-18T03:34:32;24.60;;;12.52;;
52724;SDS011;38621;52.830;6.914;2022-12-18T03:37:01;22.02;;;11.88;;
52724;SDS011;38621;52.830;6.914;2022-12-18T03:39:27;27.45;;;13.07;;
52724;SDS011;38621;52.830;6.914;2022-12-18T03:41:59;27.67;;;13.73;;
52724;SDS011;38621;52.830;6.914;2022-12-18T03:44:35;24.25;;;12.40;;
52724;SDS011;38621;52.830;6.914;2022-12-18T03:47:15;25.90;;;13.18;;
52724;SDS011;38621;52.830;6.914;2022-12-18T03:52:22;22.77;;;12.02;;
52724;SDS011;38621;52.830;6.914;2022-12-18T03:54:56;26.30;;;13.43;;
52724;SDS011;38621;52.830;6.914;2022-12-18T03:57:25;27.67;;;12.13;;
52724;SDS011;38621;52.830;6.914;2022-12-18T03:59:56;22.58;;;12.10;;
52724;SDS011;38621;52.830;6.914;2022-12-18T04:02:27;24.48;;;12.15;;
52724;SDS011;38621;52.830;6.914;2022-12-18T04:04:56;27.73;;;13.45;;
52724;SDS011;38621;52.830;6.914;2022-12-18T04:07:24;20.63;;;10.95;;
52724;SDS011;38621;52.830;6.914;2022-12-18T04:09:50;21.10;;;11.63;;
52724;SDS011;38621;52.830;6.914;2022-12-18T04:12:20;22.38;;;11.45;;
52724;SDS011;38621;52.830;6.914;2022-12-18T04:14:48;25.27;;;12.10;;
52724;SDS011;38621;52.830;6.914;2022-12-18T04:17:14;23.25;;;11.90;;
52724;SDS011;38621;52.830;6.914;2022-12-18T04:19:40;21.90;;;11.27;;
52724;SDS011;38621;52.830;6.914;2022-12-18T04:22:05;25.67;;;12.75;;
52724;SDS011;38621;52.830;6.914;2022-12-18T04:24:31;22.95;;;11.05;;
52724;SDS011;38621;52.830;6.914;2022-12-18T04:26:57;24.27;;;12.18;;
52724;SDS011;38621;52.830;6.914;2022-12-18T04:29:22;23.17;;;11.25;;
52724;SDS011;38621;52.830;6.914;2022-12-18T04:31:48;20.65;;;10.95;;
52724;SDS011;38621;52.830;6.914;2022-12-18T04:34:13;20.85;;;11.80;;
52724;SDS011;38621;52.830;6.914;2022-12-18T04:36:39;22.88;;;11.30;;
52724;SDS011;38621;52.830;6.914;2022-12-18T04:39:05;22.52;;;11.98;;
52724;SDS011;38621;52.830;6.914;2022-12-18T04:41:30;23.00;;;11.15;;
52724;SDS011;38621;52.830;6.914;2022-12-18T04:43:56;20.88;;;10.85;;
52724;SDS011;38621;52.830;6.914;2022-12-18T04:46:22;21.92;;;10.98;;
52724;SDS011;38621;52.830;6.914;2022-12-18T04:48:47;21.05;;;11.00;;
52724;SDS011;38621;52.830;6.914;2022-12-18T04:51:13;19.02;;;10.73;;
52724;SDS011;38621;52.830;6.914;2022-12-18T04:53:39;22.92;;;10.85;;
52724;SDS011;38621;52.830;6.914;2022-12-18T04:56:14;21.27;;;11.43;;
52724;SDS011;38621;52.830;6.914;2022-12-18T04:58:41;18.40;;;10.00;;
52724;SDS011;38621;52.830;6.914;2022-12-18T05:01:09;17.52;;;10.18;;
52724;SDS011;38621;52.830;6.914;2022-12-18T05:03:36;19.23;;;10.57;;
52724;SDS011;38621;52.830;6.914;2022-12-18T05:06:02;19.10;;;9.18;;
52724;SDS011;38621;52.830;6.914;2022-12-18T05:08:29;18.95;;;10.07;;
52724;SDS011;38621;52.830;6.914;2022-12-18T05:11:13;21.15;;;11.23;;
52724;SDS011;38621;52.830;6.914;2022-12-18T05:13:41;19.38;;;9.50;;
52724;SDS011;38621;52.830;6.914;2022-12-18T05:16:07;18.95;;;9.85;;
52724;SDS011;38621;52.830;6.914;2022-12-18T05:18:33;20.30;;;10.02;;
52724;SDS011;38621;52.830;6.914;2022-12-18T05:20:59;22.40;;;10.77;;
52724;SDS011;38621;52.830;6.914;2022-12-18T05:23:26;21.05;;;11.25;;
52724;SDS011;38621;52.830;6.914;2022-12-18T05:28:19;20.20;;;10.15;;
52724;SDS011;38621;52.830;6.914;2022-12-18T05:30:49;16.42;;;9.00;;
52724;SDS011;38621;52.830;6.914;2022-12-18T05:33:15;18.50;;;9.35;;
52724;SDS011;38621;52.830;6.914;2022-12-18T05:35:41;19.05;;;10.27;;
52724;SDS011;38621;52.830;6.914;2022-12-18T05:38:07;19.13;;;9.75;;
52724;SDS011;38621;52.830;6.914;2022-12-18T05:40:33;19.08;;;9.68;;
52724;SDS011;38621;52.830;6.914;2022-12-18T05:42:59;18.55;;;11.30;;
52724;SDS011;38621;52.830;6.914;2022-12-18T05:45:24;19.38;;;10.73;;
52724;SDS011;38621;52.830;6.914;2022-12-18T05:47:50;18.77;;;9.40;;
52724;SDS011;38621;52.830;6.914;2022-12-18T05:50:15;17.52;;;10.43;;
52724;SDS011;38621;52.830;6.914;2022-12-18T05:52:41;18.85;;;10.18;;
52724;SDS011;38621;52.830;6.914;2022-12-18T05:55:07;19.35;;;9.98;;
52724;SDS011;38621;52.830;6.914;2022-12-18T05:57:33;22.35;;;11.43;;
52724;SDS011;38621;52.830;6.914;2022-12-18T05:59:58;16.05;;;10.13;;
52724;SDS011;38621;52.830;6.914;2022-12-18T06:02:24;16.90;;;9.77;;
52724;SDS011;38621;52.830;6.914;2022-12-18T06:04:50;20.55;;;10.68;;
52724;SDS011;38621;52.830;6.914;2022-12-18T06:07:15;19.88;;;9.73;;
52724;SDS011;38621;52.830;6.914;2022-12-18T06:09:41;18.10;;;9.50;;
52724;SDS011;38621;52.830;6.914;2022-12-18T06:12:07;17.77;;;10.30;;
52724;SDS011;38621;52.830;6.914;2022-12-18T06:14:32;19.60;;;10.60;;
52724;SDS011;38621;52.830;6.914;2022-12-18T06:16:58;17.20;;;10.38;;
52724;SDS011;38621;52.830;6.914;2022-12-18T06:19:24;17.20;;;9.65;;
52724;SDS011;38621;52.830;6.914;2022-12-18T06:21:49;14.18;;;9.25;;
52724;SDS011;38621;52.830;6.914;2022-12-18T06:24:15;14.82;;;9.13;;
52724;SDS011;38621;52.830;6.914;2022-12-18T06:26:41;15.20;;;9.13;;
52724;SDS011;38621;52.830;6.914;2022-12-18T06:29:07;17.40;;;9.88;;
52724;SDS011;38621;52.830;6.914;2022-12-18T06:31:33;17.08;;;9.50;;
52724;SDS011;38621;52.830;6.914;2022-12-18T06:33:58;16.77;;;9.38;;
52724;SDS011;38621;52.830;6.914;2022-12-18T06:36:26;15.45;;;9.07;;
52724;SDS011;38621;52.830;6.914;2022-12-18T06:38:52;14.75;;;9.02;;
52724;SDS011;38621;52.830;6.914;2022-12-18T06:41:18;18.05;;;10.63;;
52724;SDS011;38621;52.830;6.914;2022-12-18T06:43:45;18.80;;;9.70;;
52724;SDS011;38621;52.830;6.914;2022-12-18T06:46:11;16.48;;;9.73;;
52724;SDS011;38621;52.830;6.914;2022-12-18T06:48:37;16.23;;;9.95;;
52724;SDS011;38621;52.830;6.914;2022-12-18T06:51:04;17.50;;;10.50;;
52724;SDS011;38621;52.830;6.914;2022-12-18T06:53:31;16.05;;;9.13;;
52724;SDS011;38621;52.830;6.914;2022-12-18T06:56:04;16.05;;;9.60;;
52724;SDS011;38621;52.830;6.914;2022-12-18T06:58:31;17.60;;;10.27;;
52724;SDS011;38621;52.830;6.914;2022-12-18T07:01:01;18.65;;;10.13;;
52724;SDS011;38621;52.830;6.914;2022-12-18T07:03:29;16.17;;;10.07;;
52724;SDS011;38621;52.830;6.914;2022-12-18T07:05:55;17.10;;;10.10;;
52724;SDS011;38621;52.830;6.914;2022-12-18T07:08:21;16.35;;;9.82;;
52724;SDS011;38621;52.830;6.914;2022-12-18T07:10:47;16.67;;;9.32;;
52724;SDS011;38621;52.830;6.914;2022-12-18T07:13:14;18.90;;;10.63;;
52724;SDS011;38621;52.830;6.914;2022-12-18T07:15:40;18.10;;;9.57;;
52724;SDS011;38621;52.830;6.914;2022-12-18T07:18:06;19.52;;;10.23;;
52724;SDS011;38621;52.830;6.914;2022-12-18T07:20:32;16.05;;;9.43;;
52724;SDS011;38621;52.830;6.914;2022-12-18T07:22:58;14.95;;;8.85;;
52724;SDS011;38621;52.830;6.914;2022-12-18T07:25:23;16.73;;;9.57;;
52724;SDS011;38621;52.830;6.914;2022-12-18T07:27:49;17.45;;;9.57;;
52724;SDS011;38621;52.830;6.914;2022-12-18T07:30:15;19.98;;;9.57;;
52724;SDS011;38621;52.830;6.914;2022-12-18T07:32:40;14.23;;;8.52;;
52724;SDS011;38621;52.830;6.914;2022-12-18T07:35:06;14.27;;;9.15;;
52724;SDS011;38621;52.830;6.914;2022-12-18T07:37:32;16.23;;;8.68;;
52724;SDS011;38621;52.830;6.914;2022-12-18T07:39:57;13.38;;;8.50;;
52724;SDS011;38621;52.830;6.914;2022-12-18T07:42:23;15.65;;;8.65;;
52724;SDS011;38621;52.830;6.914;2022-12-18T07:44:55;13.65;;;8.65;;
52724;SDS011;38621;52.830;6.914;2022-12-18T07:47:21;13.13;;;7.60;;
52724;SDS011;38621;52.830;6.914;2022-12-18T07:49:47;12.75;;;7.10;;
52724;SDS011;38621;52.830;6.914;2022-12-18T07:52:13;11.20;;;7.22;;
52724;SDS011;38621;52.830;6.914;2022-12-18T07:54:39;10.50;;;6.93;;
52724;SDS011;38621;52.830;6.914;2022-12-18T07:57:05;13.95;;;7.63;;
52724;SDS011;38621;52.830;6.914;2022-12-18T07:59:31;11.63;;;7.25;;
52724;SDS011;38621;52.830;6.914;2022-12-18T08:01:57;12.60;;;7.68;;
52724;SDS011;38621;52.830;6.914;2022-12-18T08:04:23;12.05;;;7.28;;
52724;SDS011;38621;52.830;6.914;2022-12-18T08:06:49;13.15;;;7.13;;
52724;SDS011;38621;52.830;6.914;2022-12-18T08:09:15;11.88;;;7.03;;
52724;SDS011;38621;52.830;6.914;2022-12-18T08:11:41;12.15;;;7.07;;
52724;SDS011;38621;52.830;6.914;2022-12-18T08:14:07;11.02;;;7.30;;
52724;SDS011;38621;52.830;6.914;2022-12-18T08:16:33;11.35;;;6.70;;
52724;SDS011;38621;52.830;6.914;2022-12-18T08:18:59;12.60;;;7.50;;
52724;SDS011;38621;52.830;6.914;2022-12-18T08:21:26;10.30;;;6.50;;
52724;SDS011;38621;52.830;6.914;2022-12-18T08:23:54;11.82;;;7.55;;
52724;SDS011;38621;52.830;6.914;2022-12-18T08:26:22;11.38;;;7.38;;
52724;SDS011;38621;52.830;6.914;2022-12-18T08:28:48;10.48;;;6.40;;
52724;SDS011;38621;52.830;6.914;2022-12-18T08:31:15;12.65;;;6.88;;
52724;SDS011;38621;52.830;6.914;2022-12-18T08:33:41;11.85;;;6.72;;
52724;SDS011;38621;52.830;6.914;2022-12-18T08:36:08;12.75;;;7.32;;
52724;SDS011;38621;52.830;6.914;2022-12-18T08:38:34;12.27;;;7.20;;
52724;SDS011;38621;52.830;6.914;2022-12-18T08:41:02;11.50;;;6.40;;
52724;SDS011;38621;52.830;6.914;2022-12-18T08:43:29;10.80;;;6.65;;
52724;SDS011;38621;52.830;6.914;2022-12-18T08:46:14;10.50;;;6.22;;
52724;SDS011;38621;52.830;6.914;2022-12-18T08:48:39;11.40;;;6.03;;
52724;SDS011;38621;52.830;6.914;2022-12-18T08:51:05;9.50;;;5.57;;
52724;SDS011;38621;52.830;6.914;2022-12-18T08:53:31;11.70;;;6.18;;
52724;SDS011;38621;52.830;6.914;2022-12-18T08:55:57;9.45;;;5.80;;
52724;SDS011;38621;52.830;6.914;2022-12-18T08:58:23;8.02;;;5.53;;
52724;SDS011;38621;52.830;6.914;2022-12-18T09:00:48;9.18;;;5.65;;
52724;SDS011;38621;52.830;6.914;2022-12-18T09:03:15;8.68;;;5.65;;
52724;SDS011;38621;52.830;6.914;2022-12-18T09:05:43;8.57;;;5.68;;
52724;SDS011;38621;52.830;6.914;2022-12-18T09:08:10;10.60;;;5.57;;
52724;SDS011;38621;52.830;6.914;2022-12-18T09:10:43;8.63;;;5.80;;
52724;SDS011;38621;52.830;6.914;2022-12-18T09:13:13;8.23;;;5.00;;
52724;SDS011;38621;52.830;6.914;2022-12-18T09:15:40;7.65;;;5.50;;
52724;SDS011;38621;52.830;6.914;2022-12-18T09:18:10;8.07;;;5.43;;
52724;SDS011;38621;52.830;6.914;2022-12-18T09:20:37;8.77;;;5.63;;
52724;SDS011;38621;52.830;6.914;2022-12-18T09:23:03;11.52;;;5.85;;
52724;SDS011;38621;52.830;6.914;2022-12-18T09:25:30;7.57;;;5.28;;
52724;SDS011;38621;52.830;6.914;2022-12-18T09:28:01;9.18;;;6.22;;
52724;SDS011;38621;52.830;6.914;2022-12-18T09:30:28;9.07;;;4.93;;
52724;SDS011;38621;52.830;6.914;2022-12-18T09:32:54;9.35;;;5.18;;
52724;SDS011;38621;52.830;6.914;2022-12-18T09:35:20;11.02;;;5.10;;
52724;SDS011;38621;52.830;6.914;2022-12-18T09:37:46;11.43;;;5.50;;
52724;SDS011;38621;52.830;6.914;2022-12-18T09:40:13;8.15;;;5.00;;
52724;SDS011;38621;52.830;6.914;2022-12-18T09:42:48;8.18;;;5.63;;
52724;SDS011;38621;52.830;6.914;2022-12-18T09:45:18;7.82;;;4.75;;
52724;SDS011;38621;52.830;6.914;2022-12-18T09:47:45;5.93;;;4.57;;
52724;SDS011;38621;52.830;6.914;2022-12-18T09:50:22;7.28;;;5.05;;
52724;SDS011;38621;52.830;6.914;2022-12-18T09:55:30;8.45;;;4.63;;
52724;SDS011;38621;52.830;6.914;2022-12-18T09:58:02;8.98;;;5.00;;
52724;SDS011;38621;52.830;6.914;2022-12-18T10:00:41;7.95;;;5.18;;
52724;SDS011;38621;52.830;6.914;2022-12-18T10:03:09;7.28;;;4.70;;
52724;SDS011;38621;52.830;6.914;2022-12-18T10:10:52;6.90;;;4.55;;
52724;SDS011;38621;52.830;6.914;2022-12-18T10:13:28;7.43;;;4.90;;
52724;SDS011;38621;52.830;6.914;2022-12-18T10:21:39;6.80;;;4.50;;
52724;SDS011;38621;52.830;6.914;2022-12-18T10:27:25;6.13;;;4.07;;
52724;SDS011;38621;52.830;6.914;2022-12-18T10:29:52;6.88;;;4.35;;
52724;SDS011;38621;52.830;6.914;2022-12-18T10:32:19;6.30;;;4.03;;
52724;SDS011;38621;52.830;6.914;2022-12-18T10:34:48;6.00;;;4.43;;
52724;SDS011;38621;52.830;6.914;2022-12-18T10:37:17;7.05;;;4.40;;
52724;SDS011;38621;52.830;6.914;2022-12-18T10:39:45;5.82;;;4.22;;
52724;SDS011;38621;52.830;6.914;2022-12-18T10:42:19;7.05;;;4.50;;
52724;SDS011;38621;52.830;6.914;2022-12-18T10:44:45;6.28;;;4.32;;
52724;SDS011;38621;52.830;6.914;2022-12-18T10:47:12;4.63;;;3.90;;
52724;SDS011;38621;52.830;6.914;2022-12-18T10:49:47;6.38;;;4.07;;
52724;SDS011;38621;52.830;6.914;2022-12-18T10:52:16;6.78;;;4.13;;
52724;SDS011;38621;52.830;6.914;2022-12-18T10:54:54;7.65;;;4.47;;
52724;SDS011;38621;52.830;6.914;2022-12-18T10:57:31;7.50;;;4.55;;
52724;SDS011;38621;52.830;6.914;2022-12-18T10:59:58;7.45;;;4.22;;
52724;SDS011;38621;52.830;6.914;2022-12-18T11:02:36;5.43;;;3.58;;
52724;SDS011;38621;52.830;6.914;2022-12-18T11:05:04;7.18;;;4.22;;
52724;SDS011;38621;52.830;6.914;2022-12-18T11:07:48;7.50;;;4.15;;
52724;SDS011;38621;52.830;6.914;2022-12-18T11:10:30;6.30;;;4.13;;
52724;SDS011;38621;52.830;6.914;2022-12-18T11:13:17;6.45;;;4.18;;
52724;SDS011;38621;52.830;6.914;2022-12-18T11:15:46;7.47;;;3.83;;
52724;SDS011;38621;52.830;6.914;2022-12-18T11:18:45;6.80;;;4.10;;
52724;SDS011;38621;52.830;6.914;2022-12-18T11:21:07;7.45;;;3.53;;
52724;SDS011;38621;52.830;6.914;2022-12-18T11:23:35;5.97;;;4.32;;
52724;SDS011;38621;52.830;6.914;2022-12-18T11:26:15;6.60;;;3.85;;
52724;SDS011;38621;52.830;6.914;2022-12-18T11:28:43;5.78;;;3.70;;
52724;SDS011;38621;52.830;6.914;2022-12-18T11:31:25;6.32;;;4.70;;
52724;SDS011;38621;52.830;6.914;2022-12-18T11:34:03;6.40;;;4.03;;
52724;SDS011;38621;52.830;6.914;2022-12-18T11:36:44;6.63;;;4.20;;
52724;SDS011;38621;52.830;6.914;2022-12-18T11:42:04;7.22;;;3.80;;
52724;SDS011;38621;52.830;6.914;2022-12-18T11:47:20;6.13;;;4.05;;
52724;SDS011;38621;52.830;6.914;2022-12-18T11:49:55;7.07;;;5.05;;
52724;SDS011;38621;52.830;6.914;2022-12-18T11:52:43;7.05;;;4.82;;
52724;SDS011;38621;52.830;6.914;2022-12-18T12:00:18;6.40;;;3.58;;
52724;SDS011;38621;52.830;6.914;2022-12-18T12:02:55;5.70;;;4.45;;
52724;SDS011;38621;52.830;6.914;2022-12-18T12:05:36;5.68;;;3.55;;
52724;SDS011;38621;52.830;6.914;2022-12-18T12:11:01;7.22;;;4.50;;
52724;SDS011;38621;52.830;6.914;2022-12-18T12:13:48;5.60;;;3.50;;
52724;SDS011;38621;52.830;6.914;2022-12-18T12:18:53;11.60;;;8.52;;
52724;SDS011;38621;52.830;6.914;2022-12-18T12:21:41;7.50;;;4.82;;
52724;SDS011;38621;52.830;6.914;2022-12-18T12:29:50;6.78;;;4.32;;
52724;SDS011;38621;52.830;6.914;2022-12-18T12:38:00;8.90;;;4.45;;
52724;SDS011;38621;52.830;6.914;2022-12-18T12:40:35;6.07;;;4.50;;
52724;SDS011;38621;52.830;6.914;2022-12-18T12:43:24;7.10;;;3.92;;
52724;SDS011;38621;52.830;6.914;2022-12-18T12:46:07;6.28;;;3.70;;
52724;SDS011;38621;52.830;6.914;2022-12-18T12:53:48;8.35;;;5.63;;
52724;SDS011;38621;52.830;6.914;2022-12-18T12:56:18;7.18;;;4.03;;
52724;SDS011;38621;52.830;6.914;2022-12-18T13:01:13;6.07;;;4.07;;
52724;SDS011;38621;52.830;6.914;2022-12-18T13:09:05;6.70;;;3.97;;
52724;SDS011;38621;52.830;6.914;2022-12-18T13:14:40;5.50;;;3.78;;
52724;SDS011;38621;52.830;6.914;2022-12-18T13:19:48;6.70;;;4.03;;
52724;SDS011;38621;52.830;6.914;2022-12-18T13:22:30;4.85;;;3.55;;
52724;SDS011;38621;52.830;6.914;2022-12-18T13:24:59;5.78;;;3.97;;
52724;SDS011;38621;52.830;6.914;2022-12-18T13:35:39;6.35;;;4.00;;
52724;SDS011;38621;52.830;6.914;2022-12-18T13:46:42;7.13;;;4.97;;
52724;SDS011;38621;52.830;6.914;2022-12-18T13:51:42;5.63;;;4.10;;
52724;SDS011;38621;52.830;6.914;2022-12-18T13:56:49;6.65;;;4.43;;
52724;SDS011;38621;52.830;6.914;2022-12-18T13:59:36;7.20;;;4.68;;
52724;SDS011;38621;52.830;6.914;2022-12-18T14:02:18;7.70;;;4.50;;
52724;SDS011;38621;52.830;6.914;2022-12-18T14:04:49;7.50;;;4.57;;
52724;SDS011;38621;52.830;6.914;2022-12-18T14:07:25;6.78;;;4.20;;
52724;SDS011;38621;52.830;6.914;2022-12-18T14:09:53;8.02;;;4.97;;
52724;SDS011;38621;52.830;6.914;2022-12-18T14:12:26;7.53;;;4.28;;
52724;SDS011;38621;52.830;6.914;2022-12-18T14:20:22;8.45;;;5.15;;
52724;SDS011;38621;52.830;6.914;2022-12-18T14:22:49;9.20;;;5.60;;
52724;SDS011;38621;52.830;6.914;2022-12-18T14:25:17;8.02;;;4.60;;
52724;SDS011;38621;52.830;6.914;2022-12-18T14:27:50;7.75;;;5.00;;
52724;SDS011;38621;52.830;6.914;2022-12-18T14:30:30;6.82;;;4.50;;
52724;SDS011;38621;52.830;6.914;2022-12-18T14:33:25;6.35;;;5.10;;
52724;SDS011;38621;52.830;6.914;2022-12-18T14:35:54;8.25;;;5.47;;
52724;SDS011;38621;52.830;6.914;2022-12-18T14:41:00;7.15;;;4.47;;
52724;SDS011;38621;52.830;6.914;2022-12-18T14:43:37;7.53;;;4.38;;
52724;SDS011;38621;52.830;6.914;2022-12-18T14:46:06;10.07;;;5.60;;
52724;SDS011;38621;52.830;6.914;2022-12-18T14:49:04;6.88;;;4.82;;
52724;SDS011;38621;52.830;6.914;2022-12-18T14:51:47;8.20;;;5.10;;
52724;SDS011;38621;52.830;6.914;2022-12-18T14:54:15;8.45;;;4.88;;
52724;SDS011;38621;52.830;6.914;2022-12-18T14:56:44;6.88;;;5.20;;
52724;SDS011;38621;52.830;6.914;2022-12-18T14:59:22;9.88;;;5.28;;
52724;SDS011;38621;52.830;6.914;2022-12-18T15:02:03;7.80;;;4.93;;
52724;SDS011;38621;52.830;6.914;2022-12-18T15:04:36;8.27;;;5.20;;
52724;SDS011;38621;52.830;6.914;2022-12-18T15:07:09;10.45;;;5.50;;
52724;SDS011;38621;52.830;6.914;2022-12-18T15:09:43;8.70;;;5.47;;
52724;SDS011;38621;52.830;6.914;2022-12-18T15:12:32;7.47;;;5.03;;
52724;SDS011;38621;52.830;6.914;2022-12-18T15:15:02;7.88;;;5.05;;
52724;SDS011;38621;52.830;6.914;2022-12-18T15:17:29;8.02;;;5.38;;
52724;SDS011;38621;52.830;6.914;2022-12-18T15:19:59;8.60;;;5.93;;
52724;SDS011;38621;52.830;6.914;2022-12-18T15:24:53;8.23;;;4.70;;
52724;SDS011;38621;52.830;6.914;2022-12-18T15:27:28;9.05;;;5.93;;
52724;SDS011;38621;52.830;6.914;2022-12-18T15:32:35;7.93;;;4.75;;
52724;SDS011;38621;52.830;6.914;2022-12-18T15:37:33;8.13;;;4.70;;
52724;SDS011;38621;52.830;6.914;2022-12-18T15:39:59;9.75;;;6.18;;
52724;SDS011;38621;52.830;6.914;2022-12-18T15:42:25;9.18;;;6.00;;
52724;SDS011;38621;52.830;6.914;2022-12-18T15:45:12;7.80;;;5.20;;
52724;SDS011;38621;52.830;6.914;2022-12-18T15:47:38;8.55;;;5.53;;
52724;SDS011;38621;52.830;6.914;2022-12-18T15:50:04;9.32;;;5.72;;
52724;SDS011;38621;52.830;6.914;2022-12-18T15:52:31;10.02;;;5.65;;
52724;SDS011;38621;52.830;6.914;2022-12-18T15:55:14;7.07;;;4.78;;
52724;SDS011;38621;52.830;6.914;2022-12-18T15:57:59;7.88;;;4.85;;
52724;SDS011;38621;52.830;6.914;2022-12-18T16:00:25;9.40;;;5.18;;
52724;SDS011;38621;52.830;6.914;2022-12-18T16:02:51;7.20;;;4.57;;
52724;SDS011;38621;52.830;6.914;2022-12-18T16:05:18;8.98;;;5.40;;
52724;SDS011;38621;52.830;6.914;2022-12-18T16:07:45;8.07;;;5.07;;
52724;SDS011;38621;52.830;6.914;2022-12-18T16:10:11;7.72;;;5.18;;
52724;SDS011;38621;52.830;6.914;2022-12-18T16:12:37;8.43;;;5.30;;
52724;SDS011;38621;52.830;6.914;2022-12-18T16:15:04;8.25;;;5.15;;
52724;SDS011;38621;52.830;6.914;2022-12-18T16:17:31;5.78;;;4.22;;
52724;SDS011;38621;52.830;6.914;2022-12-18T16:19:57;7.35;;;4.82;;
52724;SDS011;38621;52.830;6.914;2022-12-18T16:22:23;6.95;;;4.75;;
52724;SDS011;38621;52.830;6.914;2022-12-18T16:24:52;8.32;;;4.85;;
52724;SDS011;38621;52.830;6.914;2022-12-18T16:27:19;7.13;;;4.72;;
52724;SDS011;38621;52.830;6.914;2022-12-18T16:29:47;7.53;;;4.80;;
52724;SDS011;38621;52.830;6.914;2022-12-18T16:32:15;7.43;;;4.60;;
52724;SDS011;38621;52.830;6.914;2022-12-18T16:34:42;6.78;;;4.20;;
52724;SDS011;38621;52.830;6.914;2022-12-18T16:37:09;6.97;;;4.53;;
52724;SDS011;38621;52.830;6.914;2022-12-18T16:39:37;8.63;;;4.78;;
52724;SDS011;38621;52.830;6.914;2022-12-18T16:42:06;9.27;;;4.65;;
52724;SDS011;38621;52.830;6.914;2022-12-18T16:44:37;7.13;;;4.90;;
52724;SDS011;38621;52.830;6.914;2022-12-18T16:47:03;6.32;;;4.90;;
52724;SDS011;38621;52.830;6.914;2022-12-18T16:49:29;8.50;;;5.20;;
52724;SDS011;38621;52.830;6.914;2022-12-18T16:51:55;8.77;;;4.85;;
52724;SDS011;38621;52.830;6.914;2022-12-18T16:54:21;6.32;;;4.80;;
52724;SDS011;38621;52.830;6.914;2022-12-18T16:56:47;8.50;;;5.13;;
52724;SDS011;38621;52.830;6.914;2022-12-18T16:59:15;8.20;;;5.75;;
52724;SDS011;38621;52.830;6.914;2022-12-18T17:01:40;7.70;;;4.40;;